Nearby METAR Reports

 

KSJC - San Jose, California, USA
Distance from station: NE 9mi, 14km
Updated: 12,03/2020 7:53am
Clear
Clear
 Wind from S
Wind: S 3 mph , 6 km/h
Temperature: 41°F , 5°C
Dew Point: 34°F , 1°C
Humidity: 76%
Barometer: 30.19 inHg , 1022.4 hPa
Clouds: Clear
Visibility: 9 miles , 14 km
2020/12/03 12:53 KSJC 031253Z AUTO 18003KT 9SM CLR 05/01 A3019 RMK AO2 SLP223 T00500011
KNUQ - Moffett Nas/Mtn, California, USA
Distance from station: N 9mi, 14km
Updated: 11,15/2020 5:00am
NOT Current
Clear
Clear
 Wind from calm
Wind: Calm
Temperature: 43°F , 6°C
Dew Point: 41°F , 5°C
Humidity: 93%
Barometer: 30.28 inHg , 1025.4 hPa
Clouds: Clear
Visibility: 10 miles , 16 km
2020/11/15 10:00 KNUQ 151000Z AUTO 00000KT 10SM CLR 06/05 A3028 RMK AO2
KPAO - Palo Alto, California, USA
Distance from station: NNW 14mi, 23km
Updated: 12,02/2020 9:47pm
NOT Current
Partly cloudy
Partly cloudy
 Wind from varies
Wind: varies 3 mph , 6 km/h
Temperature: 50°F , 10°C
Dew Point: 37°F , 3°C
Humidity: 62%
Barometer: 30.10 inHg , 1019.3 hPa
Clouds: Partly cloudy
Visibility: 10 miles , 16 km
Cloud details: Partly cloudy 7000 ft
2020/12/03 02:47 KPAO 030247Z VRB03KT 10SM SCT070 10/03 A3010 RMK LAST
 
KRHV - San Jose/Reid, California, USA
Distance from station: ENE 12mi, 19km
Updated: 12,03/2020 12:50am
NOT Current
Clear
Clear
 Wind from calm
Wind: Calm
Temperature: 46°F , 8°C
Dew Point: 39°F , 4°C
Humidity: 76%
Barometer: 30.15 inHg , 1021 hPa
Clouds: Clear
Visibility: 10 miles , 16 km
2020/12/03 05:50 KRHV 030550Z 00000KT 10SM SKC 08/04 A3015
KOAK - Oakland, California, USA
Distance from station: NNW 31mi, 50km
Updated: 12,03/2020 7:53am
Mostly cloudy
Mostly cloudy
 Wind from calm
Wind: Calm
Temperature: 46°F , 8°C
Dew Point: 37°F , 3°C
Humidity: 71%
Barometer: 30.20 inHg , 1022.7 hPa
Clouds: Mostly cloudy
Visibility: 10 miles , 16 km
Cloud details: Few Clouds 1000 ft
Few Clouds 18000 ft
Mostly cloudy 25000 ft
2020/12/03 12:53 KOAK 031253Z 00000KT 10SM FEW010 FEW180 BKN250 08/03 A3020 RMK AO2 SLP225 T00830033
KSQL - San Carlos Airpo, California, USA
Distance from station: NW 21mi, 34km
Updated: 12,03/2020 7:55am
Clear
Clear
 Wind from calm
Wind: Calm
Temperature: 46°F , 8°C
Dew Point: 41°F , 5°C
Humidity: 82%
Barometer: 30.20 inHg , 1022.7 hPa
Clouds: Clear
Visibility: 10 miles , 16 km
2020/12/03 12:55 KSQL 031255Z AUTO 00000KT 10SM CLR 08/05 A3020 RMK AO2
 
KSFO - San Francisco, California, USA
Distance from station: NW 30mi, 49km
Updated: 12,03/2020 7:56am
Partly cloudy
Partly cloudy
 Wind from W
Wind: W 3 mph , 6 km/h
Temperature: 48°F , 9°C
Dew Point: 43°F , 6°C
Humidity: 82%
Barometer: 30.19 inHg , 1022.4 hPa
Clouds: Partly cloudy
Visibility: 10 miles , 16 km
Cloud details: Partly cloudy 20000 ft
2020/12/03 12:56 KSFO 031256Z 26003KT 10SM SCT200 09/06 A3019 RMK AO2 SLP224 T00890056
KE16 - San Martin, California, USA
Distance from station: ESE 27mi, 43km
Updated: 12,03/2020 7:55am
Few Clouds
Few Clouds
 Wind from NNE
Wind: NNE 3 mph , 6 km/h
Temperature: 37°F , 3°C
Dew Point: 34°F , 1°C
Humidity: 87%
Barometer: 30.21 inHg , 1023 hPa
Clouds: Few Clouds
Visibility: 10 miles , 16 km
Cloud details: Few Clouds 3900 ft
2020/12/03 12:55 KE16 031255Z AUTO 03003KT 10SM FEW039 03/01 A3021 RMK AO2
KWVI - Watsonville, California, USA
Distance from station: SSE 27mi, 44km
Updated: 12,03/2020 7:53am
Clear
Clear
 Wind from NNW
Wind: NNW 3 mph , 6 km/h
Temperature: 43°F , 6°C
Dew Point: 37°F , 3°C
Humidity: 81%
Barometer: 30.20 inHg , 1022.7 hPa
Clouds: Clear
Visibility: 10 miles , 16 km
2020/12/03 12:53 KWVI 031253Z AUTO 34003KT 10SM CLR 06/03 A3020 RMK AO2 SLP226 T00560028
 
KHAF - Half Moon Bay, California, USA
Distance from station: WNW 31mi, 50km
Updated: 12,03/2020 7:55am
Mist, Mostly cloudy
Mist, Mostly cloudy
 Wind from calm
Wind: Calm
Temperature: 43°F , 6°C
Dew Point: 41°F , 5°C
Humidity: 93%
Barometer: 30.19 inHg , 1022.4 hPa
Summary: Mist
Clouds: Mostly cloudy
Visibility: 6 miles , 10 km
Cloud details: Mostly cloudy 400 ft
2020/12/03 12:55 KHAF 031255Z AUTO 00000KT 6SM BR BKN004 06/05 A3019 RMK AO2
KHWD - Hayward, California, USA
Distance from station: N 28mi, 44km
Updated: 12,03/2020 7:54am
Clear
Clear
 Wind from calm
Wind: Calm
Temperature: 46°F , 8°C
Dew Point: 34°F , 1°C
Humidity: 62%
Barometer: 30.19 inHg , 1022.4 hPa
Clouds: Clear
Visibility: 10 miles , 16 km
2020/12/03 12:54 KHWD 031254Z 00000KT 10SM CLR 08/01 A3019 RMK AO2 SLP232 T00830006
KLVK - Livermore, California, USA
Distance from station: NNE 31mi, 51km
Updated: 12,03/2020 7:53am
Clear
Clear
 Wind from calm
Wind: Calm
Temperature: 37°F , 3°C
Dew Point: 30°F , -1°C
Humidity: 75%
Barometer: 30.20 inHg , 1022.7 hPa
Clouds: Clear
Visibility: 10 miles , 16 km
2020/12/03 12:53 KLVK 031253Z AUTO 00000KT 10SM CLR 03/M01 A3020 RMK AO2 SLP224 T00331011